createdAt,value
2019-05-23T00:00:00.494Z,11.00
2019-05-23T00:02:42.784Z,11.90
2019-05-23T00:05:31.217Z,12.60
2019-05-23T00:08:02.151Z,11.60
2019-05-23T00:10:33.006Z,11.90
2019-05-23T00:13:03.391Z,12.43
2019-05-23T00:15:35.433Z,12.40
2019-05-23T00:18:05.834Z,11.87
2019-05-23T00:20:35.016Z,10.70
2019-05-23T00:23:04.821Z,11.97
2019-05-23T00:25:33.640Z,11.30
2019-05-23T00:28:03.152Z,10.80
2019-05-23T00:30:46.748Z,11.63
2019-05-23T00:33:18.383Z,12.30
2019-05-23T00:35:47.352Z,12.43
2019-05-23T00:38:16.407Z,10.80
2019-05-23T00:40:45.941Z,11.77
2019-05-23T00:43:14.411Z,10.73
2019-05-23T00:45:43.443Z,12.10
2019-05-23T00:48:13.295Z,11.93
2019-05-23T00:50:44.074Z,11.70
2019-05-23T00:53:12.051Z,11.53
2019-05-23T00:55:40.330Z,12.60
2019-05-23T00:58:11.841Z,12.73
2019-05-23T01:00:42.875Z,11.83
2019-05-23T01:03:12.711Z,13.80
2019-05-23T01:05:41.173Z,12.53
2019-05-23T01:08:11.068Z,13.57
2019-05-23T01:10:40.260Z,14.10
2019-05-23T01:13:09.941Z,14.10
2019-05-23T01:15:41.055Z,13.27
2019-05-23T01:18:10.404Z,12.50
2019-05-23T01:20:55.088Z,12.13
2019-05-23T01:23:23.646Z,13.33
2019-05-23T01:25:53.311Z,13.57
2019-05-23T01:28:22.424Z,12.10
2019-05-23T01:30:53.183Z,12.60
2019-05-23T01:33:23.039Z,12.50
2019-05-23T01:35:52.658Z,12.80
2019-05-23T01:38:22.040Z,13.30
2019-05-23T01:40:50.747Z,13.47
2019-05-23T01:43:19.325Z,14.77
2019-05-23T01:45:47.589Z,13.27
2019-05-23T01:48:15.568Z,14.20
2019-05-23T01:50:43.933Z,14.20
2019-05-23T01:53:11.828Z,14.20
2019-05-23T01:55:40.865Z,15.60
2019-05-23T01:58:09.208Z,14.47
2019-05-23T02:00:38.225Z,13.17
2019-05-23T02:03:06.793Z,13.10
2019-05-23T02:05:34.682Z,14.13
2019-05-23T02:08:02.777Z,14.30
2019-05-23T02:10:31.123Z,13.23
2019-05-23T02:12:59.760Z,13.73
2019-05-23T02:15:29.350Z,11.60
2019-05-23T02:17:57.513Z,13.20
2019-05-23T02:20:26.771Z,13.40
2019-05-23T02:22:56.202Z,11.40
2019-05-23T02:25:24.731Z,12.30
2019-05-23T02:27:53.757Z,11.80
2019-05-23T02:30:34.206Z,11.43
2019-05-23T02:32:52.618Z,11.20
2019-05-23T02:35:22.050Z,12.50
2019-05-23T02:38:14.243Z,10.93
2019-05-23T02:41:17.634Z,11.83
2019-05-23T02:43:50.303Z,11.97
2019-05-23T02:46:34.344Z,11.03
2019-05-23T02:49:03.759Z,10.33
2019-05-23T02:51:36.563Z,12.90
2019-05-23T02:54:09.208Z,13.70
2019-05-23T02:56:44.153Z,13.80
2019-05-23T02:59:41.493Z,15.13
2019-05-23T03:02:54.365Z,15.83
2019-05-23T03:05:29.500Z,15.57
2019-05-23T03:08:01.279Z,14.50
2019-05-23T03:10:54.442Z,16.27
2019-05-23T03:13:28.075Z,16.53
2019-05-23T03:15:57.791Z,14.80
2019-05-23T03:18:34.978Z,15.63
2019-05-23T03:21:05.381Z,14.60
2019-05-23T03:23:35.017Z,16.40
2019-05-23T03:27:18.079Z,14.67
2019-05-23T03:29:46.910Z,15.57
2019-05-23T03:32:39.795Z,14.13
2019-05-23T03:35:30.817Z,14.40
2019-05-23T03:38:02.229Z,14.90
2019-05-23T03:40:31.329Z,15.90
2019-05-23T03:43:00.604Z,14.20
2019-05-23T03:45:30.395Z,13.80
2019-05-23T03:47:59.649Z,14.47
2019-05-23T03:50:27.808Z,15.53
2019-05-23T03:52:56.180Z,16.43
2019-05-23T03:55:25.153Z,15.63
2019-05-23T03:57:55.589Z,15.90
2019-05-23T04:00:26.484Z,16.33
2019-05-23T04:02:54.885Z,16.70
2019-05-23T04:05:23.511Z,15.80
2019-05-23T04:07:51.709Z,15.13
2019-05-23T04:10:19.753Z,17.10
2019-05-23T04:12:49.591Z,15.70
2019-05-23T04:15:17.866Z,15.40
2019-05-23T04:17:47.816Z,15.80
2019-05-23T04:20:16.543Z,16.57
2019-05-23T04:22:45.068Z,15.27
2019-05-23T04:25:13.301Z,15.60
2019-05-23T04:27:41.108Z,15.10
2019-05-23T04:30:10.593Z,15.60
2019-05-23T04:32:39.532Z,15.30
2019-05-23T04:35:07.802Z,15.60
2019-05-23T04:37:37.038Z,15.63
2019-05-23T04:40:06.076Z,15.33
2019-05-23T04:42:34.016Z,14.50
2019-05-23T04:45:01.985Z,14.40
2019-05-23T04:47:30.279Z,15.73
2019-05-23T04:49:58.551Z,16.10
2019-05-23T04:52:27.295Z,14.90
2019-05-23T04:54:55.336Z,15.50
2019-05-23T04:57:23.910Z,14.57
2019-05-23T04:59:51.773Z,14.77
2019-05-23T05:02:26.028Z,15.20
2019-05-23T05:04:50.696Z,14.10
2019-05-23T05:07:18.576Z,14.37
2019-05-23T05:09:48.247Z,14.63
2019-05-23T05:12:17.350Z,15.37
2019-05-23T05:14:45.529Z,15.20
2019-05-23T05:17:13.931Z,15.00
2019-05-23T05:19:41.964Z,16.00
2019-05-23T05:22:10.036Z,13.80
2019-05-23T05:24:47.417Z,15.23
2019-05-23T05:27:15.409Z,14.00
2019-05-23T05:29:43.367Z,13.90
2019-05-23T05:32:13.034Z,14.73
2019-05-23T05:34:41.024Z,16.80
2019-05-23T05:37:08.867Z,15.30
2019-05-23T05:39:36.620Z,15.47
2019-05-23T05:42:07.088Z,14.87
2019-05-23T05:44:35.278Z,13.57
2019-05-23T05:47:03.252Z,14.70
2019-05-23T05:49:31.896Z,13.33
2019-05-23T05:51:59.728Z,13.63
2019-05-23T05:54:27.530Z,15.23
2019-05-23T05:56:55.557Z,14.00
2019-05-23T05:59:23.307Z,14.00
2019-05-23T06:01:52.741Z,13.67
2019-05-23T06:04:20.936Z,13.90
2019-05-23T06:07:02.049Z,13.87
2019-05-23T06:09:31.268Z,13.13
2019-05-23T06:11:59.091Z,13.30
2019-05-23T06:14:27.439Z,14.17
2019-05-23T06:16:56.705Z,13.40
2019-05-23T06:19:24.777Z,13.50
2019-05-23T06:21:53.290Z,14.00
2019-05-23T06:24:39.031Z,13.40
2019-05-23T06:26:51.899Z,12.73
2019-05-23T06:29:19.996Z,12.80
2019-05-23T06:31:48.704Z,13.47
2019-05-23T06:34:16.409Z,14.80
2019-05-23T06:36:44.521Z,11.27
2019-05-23T06:39:12.997Z,13.03
2019-05-23T06:41:40.916Z,11.23
2019-05-23T06:44:10.163Z,11.80
2019-05-23T06:46:38.298Z,11.70
2019-05-23T06:49:07.265Z,11.00
2019-05-23T06:51:35.088Z,10.90
2019-05-23T06:54:03.078Z,10.37
2019-05-23T06:56:31.180Z,10.90
2019-05-23T06:59:00.329Z,9.83
2019-05-23T07:01:31.264Z,9.70
2019-05-23T07:03:59.788Z,9.97
2019-05-23T07:06:28.371Z,9.73
2019-05-23T07:08:56.434Z,9.50
2019-05-23T07:11:24.688Z,9.37
2019-05-23T07:13:53.009Z,8.77
2019-05-23T07:16:20.751Z,8.53
2019-05-23T07:18:48.775Z,7.70
2019-05-23T07:21:16.828Z,8.60
2019-05-23T07:23:44.591Z,7.83
2019-05-23T07:26:15.028Z,7.17
2019-05-23T07:28:43.101Z,6.80
2019-05-23T07:31:11.330Z,6.30
2019-05-23T07:34:00.276Z,5.80
2019-05-23T07:36:13.552Z,6.20
2019-05-23T07:38:41.972Z,5.53
2019-05-23T07:41:09.974Z,5.73
2019-05-23T07:43:38.014Z,5.50
2019-05-23T07:46:06.757Z,6.50
2019-05-23T07:48:34.699Z,6.60
2019-05-23T07:51:02.647Z,6.67
2019-05-23T07:53:47.383Z,7.33
2019-05-23T07:56:17.014Z,7.73
2019-05-23T07:58:45.159Z,7.90
2019-05-23T08:01:15.511Z,7.57
2019-05-23T08:03:44.980Z,8.67
2019-05-23T08:06:14.030Z,9.17
2019-05-23T08:08:42.179Z,9.00
2019-05-23T08:11:10.196Z,8.60
2019-05-23T08:13:38.788Z,9.73
2019-05-23T08:16:06.692Z,9.30
2019-05-23T08:18:34.951Z,10.37
2019-05-23T08:21:02.912Z,10.30
2019-05-23T08:23:32.440Z,9.60
2019-05-23T08:26:00.687Z,9.90
2019-05-23T08:28:29.235Z,9.33
2019-05-23T08:30:58.359Z,8.60
2019-05-23T08:33:27.366Z,9.67
2019-05-23T08:35:55.333Z,9.53
2019-05-23T08:38:23.938Z,10.17
2019-05-23T08:40:53.245Z,8.73
2019-05-23T08:43:21.073Z,10.03
2019-05-23T08:45:49.115Z,9.63
2019-05-23T08:48:17.186Z,10.53
2019-05-23T08:50:45.020Z,10.47
2019-05-23T08:53:12.948Z,9.93
2019-05-23T08:55:42.799Z,10.23
2019-05-23T08:58:11.832Z,10.43
2019-05-23T09:00:41.030Z,10.60
2019-05-23T09:03:09.551Z,9.60
2019-05-23T09:05:38.073Z,10.70
2019-05-23T09:08:08.204Z,9.40
2019-05-23T09:10:37.280Z,9.93
2019-05-23T09:13:06.013Z,9.53
2019-05-23T09:15:33.893Z,9.73
2019-05-23T09:18:03.175Z,9.50
2019-05-23T09:20:31.504Z,7.73
2019-05-23T09:22:59.220Z,7.93
2019-05-23T09:25:27.097Z,8.23
2019-05-23T09:27:55.527Z,6.90
2019-05-23T09:30:25.574Z,7.97
2019-05-23T09:32:53.424Z,6.60
2019-05-23T09:35:22.420Z,7.20
2019-05-23T09:37:50.313Z,6.90
2019-05-23T09:40:18.022Z,6.70
2019-05-23T09:42:46.418Z,7.00
2019-05-23T09:45:16.614Z,6.50
2019-05-23T09:47:45.534Z,6.37
2019-05-23T09:50:16.783Z,5.90
2019-05-23T09:52:44.500Z,6.17
2019-05-23T09:55:13.203Z,5.10
2019-05-23T09:57:42.039Z,3.70
2019-05-23T10:00:13.039Z,3.03
2019-05-23T10:02:40.858Z,2.70
2019-05-23T10:05:12.112Z,2.60
2019-05-23T10:07:39.809Z,2.93
2019-05-23T10:10:08.661Z,3.20
2019-05-23T10:12:36.830Z,4.70
2019-05-23T10:15:09.345Z,3.87
2019-05-23T10:17:37.190Z,3.33
2019-05-23T10:20:05.760Z,3.40
2019-05-23T10:22:33.495Z,2.87
2019-05-23T10:25:01.332Z,4.37
2019-05-23T10:27:29.109Z,3.87
2019-05-23T10:29:57.052Z,2.80
2019-05-23T10:32:25.494Z,3.13
2019-05-23T10:34:55.325Z,2.23
2019-05-23T10:37:23.111Z,2.83
2019-05-23T10:39:54.152Z,2.70
2019-05-23T10:42:28.031Z,2.10
2019-05-23T10:44:56.939Z,2.40
2019-05-23T10:47:25.262Z,2.70
2019-05-23T10:49:53.851Z,2.30
2019-05-23T10:52:21.661Z,2.10
2019-05-23T10:54:49.416Z,2.47
2019-05-23T10:57:19.385Z,1.70
2019-05-23T10:59:47.123Z,2.37
2019-05-23T11:02:15.086Z,2.77
2019-05-23T11:04:42.784Z,2.70
2019-05-23T11:07:11.139Z,3.17
2019-05-23T11:09:40.278Z,2.77
2019-05-23T11:12:08.940Z,2.73
2019-05-23T11:14:37.053Z,3.10
2019-05-23T11:17:06.186Z,2.43
2019-05-23T11:19:35.162Z,3.03
2019-05-23T11:22:05.475Z,4.10
2019-05-23T11:24:33.638Z,3.30
2019-05-23T11:27:01.852Z,3.20
2019-05-23T11:29:29.958Z,3.33
2019-05-23T11:31:58.174Z,3.73
2019-05-23T11:34:26.412Z,4.73
2019-05-23T11:36:54.562Z,3.60
2019-05-23T11:39:22.578Z,4.67
2019-05-23T11:41:50.729Z,3.77
2019-05-23T11:44:18.621Z,4.70
2019-05-23T11:46:46.759Z,4.20
2019-05-23T11:49:15.022Z,5.53
2019-05-23T11:51:43.071Z,4.90
2019-05-23T11:54:12.962Z,5.33
2019-05-23T11:56:41.105Z,5.63
2019-05-23T11:59:09.095Z,5.30
2019-05-23T12:01:43.577Z,5.80
2019-05-23T12:04:36.797Z,5.57
2019-05-23T12:07:24.876Z,6.50
2019-05-23T12:09:52.910Z,7.13
2019-05-23T12:12:21.616Z,6.43
2019-05-23T12:14:49.539Z,5.57
2019-05-23T12:17:19.618Z,6.30
2019-05-23T12:19:47.884Z,6.00
2019-05-23T12:22:15.855Z,6.10
2019-05-23T12:24:43.725Z,6.17
2019-05-23T12:27:12.251Z,6.10
2019-05-23T12:29:41.095Z,6.20
2019-05-23T12:32:10.746Z,6.53
2019-05-23T12:34:38.744Z,6.60
2019-05-23T12:37:19.172Z,6.07
2019-05-23T12:39:37.940Z,6.50
2019-05-23T12:42:06.227Z,6.73
2019-05-23T12:44:34.156Z,6.40
2019-05-23T12:47:03.920Z,5.37
2019-05-23T12:49:39.750Z,5.60
2019-05-23T12:52:09.812Z,5.10
2019-05-23T12:54:38.256Z,6.60
2019-05-23T12:57:07.974Z,6.63
2019-05-23T12:59:37.716Z,6.37
2019-05-23T13:02:10.170Z,5.90
2019-05-23T13:04:38.737Z,6.00
2019-05-23T13:07:07.096Z,7.87
2019-05-23T13:09:36.679Z,7.53
2019-05-23T13:12:04.782Z,7.40
2019-05-23T13:14:33.212Z,7.17
2019-05-23T13:17:01.922Z,6.53
2019-05-23T13:19:31.989Z,5.80
2019-05-23T13:21:59.951Z,5.13
2019-05-23T13:24:28.921Z,6.30
2019-05-23T13:26:56.777Z,4.70
2019-05-23T13:29:25.371Z,4.60
2019-05-23T13:31:53.141Z,2.83
2019-05-23T13:34:20.845Z,2.97
2019-05-23T13:36:50.037Z,2.90
2019-05-23T13:39:19.722Z,2.80
2019-05-23T13:41:47.691Z,2.80
2019-05-23T13:44:31.821Z,1.60
2019-05-23T13:46:45.938Z,1.47
2019-05-23T13:49:14.440Z,1.50
2019-05-23T13:51:42.352Z,1.13
2019-05-23T13:54:10.432Z,1.77
2019-05-23T13:56:38.318Z,1.33
2019-05-23T13:59:06.208Z,1.00
2019-05-23T14:01:34.173Z,1.40
2019-05-23T14:04:02.743Z,1.70
2019-05-23T14:06:30.805Z,1.60
2019-05-23T14:09:00.132Z,1.97
2019-05-23T14:11:27.967Z,2.17
2019-05-23T14:14:01.026Z,2.00
2019-05-23T14:16:27.604Z,2.27
2019-05-23T14:18:57.955Z,2.40
2019-05-23T14:21:28.482Z,2.33
2019-05-23T14:23:58.237Z,2.17
2019-05-23T14:26:28.020Z,2.37
2019-05-23T14:28:56.305Z,2.53
2019-05-23T14:31:27.735Z,2.33
2019-05-23T14:34:16.447Z,2.40
2019-05-23T14:37:10.215Z,2.27
2019-05-23T14:39:41.680Z,2.40
2019-05-23T14:42:23.970Z,2.20
2019-05-23T14:44:53.192Z,2.70
2019-05-23T14:47:40.051Z,3.07
2019-05-23T14:50:30.171Z,2.50
2019-05-23T14:52:59.633Z,2.80
2019-05-23T14:55:27.655Z,2.37
2019-05-23T14:57:55.693Z,2.50
2019-05-23T15:00:25.735Z,2.23
2019-05-23T15:02:53.737Z,2.37
2019-05-23T15:05:21.910Z,3.13
2019-05-23T15:07:50.934Z,2.90
2019-05-23T15:10:20.213Z,3.33
2019-05-23T15:12:48.210Z,3.13
2019-05-23T15:15:16.679Z,3.23
2019-05-23T15:17:44.412Z,2.87
2019-05-23T15:20:13.681Z,3.00
2019-05-23T15:22:41.406Z,3.00
2019-05-23T15:25:09.362Z,3.07
2019-05-23T15:27:37.262Z,3.37
2019-05-23T15:30:05.679Z,3.40
2019-05-23T15:32:33.938Z,3.57
2019-05-23T15:35:02.020Z,3.00
2019-05-23T15:37:29.863Z,3.10
2019-05-23T15:39:57.583Z,3.27
2019-05-23T15:42:26.899Z,2.73
2019-05-23T15:44:54.909Z,2.90
2019-05-23T15:47:28.088Z,2.80
2019-05-23T15:49:59.764Z,2.80
2019-05-23T15:52:43.072Z,2.60
2019-05-23T15:55:21.319Z,3.00
2019-05-23T15:58:11.839Z,3.13
2019-05-23T16:00:48.207Z,2.77
2019-05-23T16:03:25.959Z,3.03
2019-05-23T16:05:54.459Z,3.10
2019-05-23T16:08:22.567Z,3.37
2019-05-23T16:10:50.514Z,3.50
2019-05-23T16:13:18.377Z,2.80
2019-05-23T16:15:46.513Z,3.40
2019-05-23T16:18:14.569Z,3.30
2019-05-23T16:20:42.741Z,2.80
2019-05-23T16:23:10.481Z,2.70
2019-05-23T16:25:38.228Z,2.40
2019-05-23T16:28:06.127Z,3.00
2019-05-23T16:30:34.453Z,2.63
2019-05-23T16:33:02.202Z,2.67
2019-05-23T16:35:30.443Z,2.60
2019-05-23T16:37:59.322Z,2.43
2019-05-23T16:40:27.301Z,2.73
2019-05-23T16:42:55.708Z,2.57
2019-05-23T16:45:23.771Z,2.40
2019-05-23T16:47:53.308Z,2.33
2019-05-23T16:50:21.459Z,2.40
2019-05-23T16:52:49.396Z,2.30
2019-05-23T16:55:24.074Z,2.20
2019-05-23T16:57:56.894Z,2.10
2019-05-23T17:00:42.968Z,1.90
2019-05-23T17:03:30.854Z,2.30
2019-05-23T17:06:16.885Z,2.33
2019-05-23T17:09:02.753Z,1.67
2019-05-23T17:11:37.939Z,2.13
2019-05-23T17:14:24.149Z,2.10
2019-05-23T17:17:05.005Z,1.93
2019-05-23T17:19:51.887Z,1.93
2019-05-23T17:22:38.009Z,2.10
2019-05-23T17:25:25.623Z,2.10
2019-05-23T17:28:11.918Z,2.27
2019-05-23T17:30:55.178Z,1.90
2019-05-23T17:33:23.199Z,1.70
2019-05-23T17:35:51.325Z,2.07
2019-05-23T17:38:19.330Z,2.40
2019-05-23T17:40:47.181Z,2.10
2019-05-23T17:43:15.125Z,2.20
2019-05-23T17:45:43.246Z,1.90
2019-05-23T17:48:11.752Z,2.23
2019-05-23T17:50:39.979Z,1.70
2019-05-23T17:53:07.854Z,1.63
2019-05-23T17:55:37.158Z,1.90
2019-05-23T17:58:05.504Z,2.20
2019-05-23T18:00:42.281Z,2.13
2019-05-23T18:03:11.350Z,2.00
2019-05-23T18:05:39.737Z,1.73
2019-05-23T18:08:08.765Z,1.57
2019-05-23T18:10:44.801Z,1.93
2019-05-23T18:13:06.885Z,2.10
2019-05-23T18:15:35.769Z,1.63
2019-05-23T18:18:04.663Z,1.70
2019-05-23T18:20:34.378Z,1.97
2019-05-23T18:23:02.930Z,1.73
2019-05-23T18:25:31.799Z,2.07
2019-05-23T18:28:00.063Z,2.17
2019-05-23T18:30:35.121Z,1.90
2019-05-23T18:33:04.038Z,1.67
2019-05-23T18:35:32.665Z,1.87
2019-05-23T18:38:00.841Z,2.27
2019-05-23T18:40:29.584Z,1.73
2019-05-23T18:42:59.081Z,1.77
2019-05-23T18:45:28.796Z,1.57
2019-05-23T18:50:59.818Z,1.93
2019-05-23T18:53:28.081Z,1.70
2019-05-23T18:56:18.010Z,2.07
2019-05-23T18:58:45.754Z,2.10
2019-05-23T19:05:02.134Z,2.20
2019-05-23T19:07:29.848Z,1.83
2019-05-23T19:10:01.142Z,1.90
2019-05-23T19:12:29.262Z,2.10
2019-05-23T19:14:57.030Z,1.80
2019-05-23T19:17:25.171Z,1.80
2019-05-23T19:19:53.005Z,2.07
2019-05-23T19:22:21.171Z,1.80
2019-05-23T19:24:48.983Z,1.70
2019-05-23T19:27:16.742Z,2.10
2019-05-23T19:29:44.560Z,2.27
2019-05-23T19:32:13.149Z,2.00
2019-05-23T19:34:41.008Z,2.00
2019-05-23T19:37:09.806Z,2.00
2019-05-23T19:39:38.696Z,2.10
2019-05-23T19:42:07.028Z,1.90
2019-05-23T19:44:34.804Z,2.20
2019-05-23T19:47:02.814Z,2.67
2019-05-23T19:49:30.653Z,2.00
2019-05-23T19:51:59.090Z,2.47
2019-05-23T19:54:27.590Z,2.70
2019-05-23T19:56:55.294Z,2.50
2019-05-23T19:59:23.160Z,2.03
2019-05-23T20:02:04.692Z,2.57
2019-05-23T20:04:33.571Z,2.10
2019-05-23T20:07:02.471Z,2.60
2019-05-23T20:09:30.857Z,2.57
2019-05-23T20:11:59.299Z,2.30
2019-05-23T20:14:27.262Z,2.87
2019-05-23T20:16:55.532Z,3.03
2019-05-23T20:19:23.351Z,2.97
2019-05-23T20:21:51.062Z,2.80
2019-05-23T20:24:18.842Z,2.90
2019-05-23T20:26:46.573Z,3.63
2019-05-23T20:29:14.373Z,3.10
2019-05-23T20:31:42.136Z,3.27
2019-05-23T20:34:10.557Z,4.30
2019-05-23T20:36:38.266Z,4.60
2019-05-23T20:39:06.518Z,3.70
2019-05-23T20:41:35.407Z,4.80
2019-05-23T20:44:03.345Z,4.40
2019-05-23T20:46:31.423Z,4.13
2019-05-23T20:48:59.130Z,4.17
2019-05-23T20:51:27.075Z,3.60
2019-05-23T20:53:54.942Z,3.67
2019-05-23T20:56:23.222Z,3.80
2019-05-23T20:58:50.980Z,3.63
2019-05-23T21:01:26.905Z,3.17
2019-05-23T21:03:55.846Z,3.03
2019-05-23T21:06:23.603Z,3.57
2019-05-23T21:08:51.319Z,4.00
2019-05-23T21:11:19.163Z,4.90
2019-05-23T21:13:46.959Z,4.40
2019-05-23T21:16:14.685Z,4.53
2019-05-23T21:18:42.508Z,4.73
2019-05-23T21:21:10.385Z,5.00
2019-05-23T21:23:38.088Z,4.80
2019-05-23T21:26:06.125Z,5.30
2019-05-23T21:28:35.315Z,6.27
2019-05-23T21:31:06.405Z,6.30
2019-05-23T21:33:34.203Z,7.57
2019-05-23T21:36:01.929Z,6.90
2019-05-23T21:38:29.652Z,6.40
2019-05-23T21:40:57.370Z,7.17
2019-05-23T21:43:27.381Z,6.50
2019-05-23T21:45:55.434Z,6.30
2019-05-23T21:48:23.165Z,6.40
2019-05-23T21:50:51.254Z,6.97
2019-05-23T21:53:19.131Z,8.20
2019-05-23T21:55:47.072Z,7.50
2019-05-23T21:58:15.157Z,6.90
2019-05-23T22:01:30.283Z,7.90
2019-05-23T22:04:20.902Z,7.43
2019-05-23T22:07:07.764Z,7.60
2019-05-23T22:09:35.439Z,8.37
2019-05-23T22:12:03.596Z,7.20
2019-05-23T22:14:32.151Z,8.60
2019-05-23T22:16:59.921Z,7.33
2019-05-23T22:19:28.385Z,8.00
2019-05-23T22:21:56.130Z,7.70
2019-05-23T22:24:24.329Z,7.93
2019-05-23T22:26:52.055Z,6.87
2019-05-23T22:29:19.894Z,7.20
2019-05-23T22:31:47.569Z,7.43
2019-05-23T22:34:33.993Z,7.03
2019-05-23T22:37:03.621Z,8.07
2019-05-23T22:39:31.481Z,7.97
2019-05-23T22:41:59.288Z,8.17
2019-05-23T22:44:27.007Z,8.70
2019-05-23T22:46:55.203Z,8.63
2019-05-23T22:49:22.923Z,9.07
2019-05-23T22:51:50.637Z,9.67
2019-05-23T22:54:18.392Z,9.83
2019-05-23T22:56:46.162Z,10.93
2019-05-23T22:59:13.894Z,10.53
2019-05-23T23:01:41.631Z,12.43
2019-05-23T23:04:11.230Z,12.30
2019-05-23T23:06:38.985Z,12.23
2019-05-23T23:09:07.339Z,11.73
2019-05-23T23:11:35.029Z,13.13
2019-05-23T23:14:02.771Z,11.90
2019-05-23T23:16:30.487Z,13.03
2019-05-23T23:18:58.230Z,11.63
2019-05-23T23:21:25.947Z,10.93
2019-05-23T23:23:53.681Z,10.43
2019-05-23T23:26:21.377Z,12.23
2019-05-23T23:28:49.152Z,12.07
2019-05-23T23:31:16.979Z,11.70
2019-05-23T23:33:44.671Z,12.47
2019-05-23T23:36:12.406Z,12.97
2019-05-23T23:38:40.130Z,11.37
2019-05-23T23:41:07.935Z,11.80
2019-05-23T23:43:35.687Z,11.87
2019-05-23T23:46:21.815Z,10.63
2019-05-23T23:49:08.303Z,10.40
2019-05-23T23:51:53.911Z,12.20
2019-05-23T23:54:39.417Z,10.37
2019-05-23T23:57:25.505Z,11.03
2019-05-23T23:59:52.834Z,11.90
